Clear Lake, IA

1:34 AM CDT on September 01, 2015 (GMT -0500)
Mason City Municipal | | Change Station
CLOSE
Current Station
Airport
Location: Mason City,
Elevation: 1214 ft
Nearby Weather Stations

Elev 1214 ft 43.16 °N, 93.33 °W | Updated 6 minutes ago

Fog
Fog
66 °F
Feels Like 66 °F
N
6
Wind Variable Wind from South

Today
High -- | Low -- °F
--% Chance of Precip.
Yesterday
High -- | Low -- °F
Precip. -- in
6:37 AM 7:48 PM
Waning Gibbous, 91% visible
Pressure 29.98 in
Visibility 0.2 miles
Clouds
Dew Point 66 °F
Humidity 100%
Rainfall 0.00 in
Snow Depth Not available.
UV Not available.
Pollen 10.80 out of 12
Air Quality Not available.
Flu Activity Not available.
SPECI KMCW 010628Z AUTO 18005KT 1/4SM FG VV001 19/19 A2998 RMK AO2 T01890189
Pressure 29.98 in
Visibility 0.2 miles
Clouds
Dew Point 66 °F
Humidity 100%
Rainfall 0.00 in
Snow Depth Not available.
UV Not available.
Pollen 10.80 out of 12
Air Quality Not available.
Flu Activity Not available.
SPECI KMCW 010628Z AUTO 18005KT 1/4SM FG VV001 19/19 A2998 RMK AO2 T01890189

10-Day Weather Forecast

×

Almanac

Astronomy

Sep. 01, 2015 Rise Set
Actual Time
Civil Twilight
Nautical Twilight
Astronomical Twilight
Moon
Length of Visible Light
Length of Day
Tomorrow will be .
, % of the Moon is Illuminated

Today's Extremes

State Highs State Lows

Community

WunderPhotos

Upload Photos

1,851,488 photos uploaded!

WunderBlogs® & News

Nearby

Air Quality

  Air Quality AQ Index Pollutant
Not available.

Snow Depth

Station Depth Elevation

Earthquake Activity

City Distance Mag. Time & Date
Minimum magnitude displayed is 2.5.

Coastal Water Temperatures

Place Temperature

Stations

Nearby Weather Stations

Station Location Temp. Windchill Dew Point Humidity Wind Precip. Elev Updated Type